Time;durP1;ratioP1;P1;durP2;ratioP2;P2;SDS_P1;SDS_P2;PMS_P1;PMS_P2;Temp;Humidity;BMP_temperature;BMP_pressure;BME280_temperature;BME280_humidity;BME280_pressure;Samples;Min_cycle;Max_cycle;Signal;HPM_P1;HPM_P2
2022/09/07 00:00:10;;;;;;;16.15;9.05;;;;;;;;;;5020024;28;20194;-69
2022/09/07 00:02:35;;;;;;;16.60;9.25;;;;;;;;;;5024033;28;20182;-68
2022/09/07 00:05:01;;;;;;;17.50;9.32;;;;;;;;;;5018156;28;20209;-69
2022/09/07 00:07:26;;;;;;;12.32;8.52;;;;;;;;;;5013134;28;20194;-68
2022/09/07 00:09:52;;;;;;;14.73;9.35;;;;;;;;;;5023642;28;20268;-69
2022/09/07 00:12:17;;;;;;;14.63;10.48;;;;;;;;;;5010460;28;20586;-67
2022/09/07 00:14:42;;;;;;;17.80;10.68;;;;;;;;;;5022380;28;20217;-68
2022/09/07 00:17:08;;;;;;;18.75;11.80;;;;;;;;;;5025318;28;20255;-68
2022/09/07 00:19:33;;;;;;;20.23;12.13;;;;;;;;;;5015715;28;20569;-67
2022/09/07 00:21:58;;;;;;;22.38;13.25;;;;;;;;;;5018354;28;20562;-68
2022/09/07 00:24:24;;;;;;;19.02;12.95;;;;;;;;;;5022026;28;20205;-70
2022/09/07 00:26:49;;;;;;;25.23;15.50;;;;;;;;;;5022889;28;20226;-75
2022/09/07 00:29:15;;;;;;;26.25;14.93;;;;;;;;;;5025552;28;20178;-72
2022/09/07 00:31:40;;;;;;;23.05;17.13;;;;;;;;;;5031197;28;20212;-72
2022/09/07 00:34:06;;;;;;;27.05;19.42;;;;;;;;;;5019240;28;20183;-73
2022/09/07 00:36:31;;;;;;;30.42;20.27;;;;;;;;;;5020370;28;20178;-71
2022/09/07 00:38:57;;;;;;;25.92;19.27;;;;;;;;;;5030291;28;20186;-71
2022/09/07 00:41:23;;;;;;;25.88;20.02;;;;;;;;;;5029896;28;20277;-72
2022/09/07 00:43:58;;;;;;;30.02;20.92;;;;;;;;;;5025658;28;20305;-73
2022/09/07 00:46:28;;;;;;;31.60;23.48;;;;;;;;;;5028601;28;20192;-73
2022/09/07 00:49:04;;;;;;;32.10;21.90;;;;;;;;;;5031025;28;20738;-74
2022/09/07 00:51:34;;;;;;;30.95;22.90;;;;;;;;;;5027442;28;20205;-74
2022/09/07 00:54:06;;;;;;;31.15;22.42;;;;;;;;;;5013364;28;20701;-73
2022/09/07 00:56:33;;;;;;;31.50;24.90;;;;;;;;;;5025394;28;20269;-73
2022/09/07 00:58:59;;;;;;;34.65;26.25;;;;;;;;;;5021506;28;20182;-72
2022/09/07 01:01:26;;;;;;;36.63;26.38;;;;;;;;;;5027150;28;20526;-71
2022/09/07 01:03:54;;;;;;;32.85;26.08;;;;;;;;;;5017111;28;20251;-72
2022/09/07 01:06:24;;;;;;;37.40;26.52;;;;;;;;;;5028262;28;20201;-72
2022/09/07 01:08:49;;;;;;;32.90;27.77;;;;;;;;;;5016449;28;20182;-72
2022/09/07 01:11:18;;;;;;;34.60;28.08;;;;;;;;;;5029919;28;20197;-72
2022/09/07 01:13:45;;;;;;;35.63;29.42;;;;;;;;;;5024146;28;20182;-72
2022/09/07 01:16:37;;;;;;;37.83;29.08;;;;;;;;;;5020133;28;20586;-72
2022/09/07 01:19:41;;;;;;;42.92;32.25;;;;;;;;;;5015524;28;20317;-72
2022/09/07 01:22:39;;;;;;;39.67;30.20;;;;;;;;;;5020299;28;20182;-72
2022/09/07 01:25:11;;;;;;;38.35;29.52;;;;;;;;;;5027087;28;20206;-70
2022/09/07 01:28:04;;;;;;;43.38;30.48;;;;;;;;;;5026350;28;20182;-71
2022/09/07 01:30:34;;;;;;;37.38;29.65;;;;;;;;;;5022888;28;20191;-71
2022/09/07 01:33:15;;;;;;;38.33;29.25;;;;;;;;;;5014377;28;20194;-70
2022/09/07 01:36:03;;;;;;;30.73;26.38;;;;;;;;;;5028093;28;20228;-71
2022/09/07 01:38:31;;;;;;;29.50;25.63;;;;;;;;;;5019601;28;20178;-71
2022/09/07 01:41:06;;;;;;;35.40;29.20;;;;;;;;;;5031199;28;20197;-70
2022/09/07 01:43:57;;;;;;;36.28;29.00;;;;;;;;;;5019579;28;20632;-70
2022/09/07 01:46:32;;;;;;;34.20;28.70;;;;;;;;;;5043730;28;20272;-71
2022/09/07 01:49:10;;;;;;;35.50;28.83;;;;;;;;;;5033540;28;20189;-71
2022/09/07 01:51:40;;;;;;;36.65;29.05;;;;;;;;;;5028207;28;20705;-73
2022/09/07 01:54:13;;;;;;;35.75;28.75;;;;;;;;;;5029227;28;20193;-73
2022/09/07 01:56:43;;;;;;;39.22;30.95;;;;;;;;;;5029035;28;20186;-74
2022/09/07 01:59:16;;;;;;;41.72;31.92;;;;;;;;;;5031286;28;20281;-74
2022/09/07 02:01:56;;;;;;;37.13;31.40;;;;;;;;;;5027276;28;20190;-74
2022/09/07 02:04:30;;;;;;;38.42;30.65;;;;;;;;;;5021927;28;20201;-72
2022/09/07 02:07:19;;;;;;;43.20;32.22;;;;;;;;;;5041609;28;20246;-72
2022/09/07 02:09:59;;;;;;;40.88;34.20;;;;;;;;;;5021630;28;20542;-72
2022/09/07 02:12:46;;;;;;;41.50;31.95;;;;;;;;;;5020377;28;20625;-72
2022/09/07 02:15:17;;;;;;;40.10;33.65;;;;;;;;;;5027670;28;20194;-71
2022/09/07 02:17:47;;;;;;;41.03;33.05;;;;;;;;;;5014445;28;20182;-70
2022/09/07 02:20:18;;;;;;;38.78;33.55;;;;;;;;;;5027005;28;20194;-70
2022/09/07 02:22:48;;;;;;;40.83;32.70;;;;;;;;;;5022390;28;20182;-70
2022/09/07 02:25:20;;;;;;;40.22;33.60;;;;;;;;;;5023086;28;20509;-70
2022/09/07 02:28:01;;;;;;;39.97;32.45;;;;;;;;;;5016830;28;20212;-70
2022/09/07 02:30:26;;;;;;;41.10;32.03;;;;;;;;;;5016926;28;20584;-70
2022/09/07 02:32:51;;;;;;;36.58;30.92;;;;;;;;;;5024426;28;20300;-70
2022/09/07 02:35:17;;;;;;;39.72;32.83;;;;;;;;;;5019744;28;20206;-70
2022/09/07 02:37:44;;;;;;;43.17;32.92;;;;;;;;;;5027999;28;20186;-70
2022/09/07 02:40:10;;;;;;;44.45;32.58;;;;;;;;;;5022862;28;20564;-70
2022/09/07 02:42:36;;;;;;;39.88;32.97;;;;;;;;;;5024267;28;20201;-70
2022/09/07 02:45:04;;;;;;;44.28;33.65;;;;;;;;;;5027937;28;20666;-70
2022/09/07 02:47:48;;;;;;;40.45;35.08;;;;;;;;;;5026532;28;20186;-70
2022/09/07 02:50:45;;;;;;;38.75;34.40;;;;;;;;;;5018722;28;20193;-70
2022/09/07 02:53:16;;;;;;;49.72;33.63;;;;;;;;;;5008221;28;20212;-70
2022/09/07 02:55:56;;;;;;;39.33;33.35;;;;;;;;;;5028531;28;20566;-70
2022/09/07 02:58:40;;;;;;;43.72;33.13;;;;;;;;;;5017740;28;20674;-70
2022/09/07 03:01:20;;;;;;;41.28;35.25;;;;;;;;;;5015028;28;20520;-70
2022/09/07 03:04:01;;;;;;;42.35;34.33;;;;;;;;;;5020132;28;20177;-70
2022/09/07 03:06:37;;;;;;;40.55;34.33;;;;;;;;;;5017120;28;20395;-70
2022/09/07 03:09:08;;;;;;;39.38;33.60;;;;;;;;;;5028077;28;20526;-69
2022/09/07 03:11:37;;;;;;;39.63;34.65;;;;;;;;;;5026141;28;20186;-69
2022/09/07 03:14:24;;;;;;;48.00;33.47;;;;;;;;;;5016189;28;20652;-70
2022/09/07 03:16:54;;;;;;;36.97;31.35;;;;;;;;;;5023593;28;20198;-70
2022/09/07 03:19:19;;;;;;;35.95;32.05;;;;;;;;;;5027904;28;20189;-70
2022/09/07 03:21:45;;;;;;;46.05;34.25;;;;;;;;;;5026594;28;20189;-70
2022/09/07 03:24:10;;;;;;;45.55;35.80;;;;;;;;;;5021385;28;20206;-70
2022/09/07 03:26:39;;;;;;;47.45;35.50;;;;;;;;;;5024556;28;20234;-69
2022/09/07 03:29:04;;;;;;;43.83;35.90;;;;;;;;;;5024292;28;20546;-70
2022/09/07 03:31:32;;;;;;;48.53;38.05;;;;;;;;;;5025914;28;20213;-69
2022/09/07 03:33:57;;;;;;;47.40;37.47;;;;;;;;;;5020974;28;20596;-69
2022/09/07 03:36:22;;;;;;;49.85;38.65;;;;;;;;;;5021399;28;20265;-69
2022/09/07 03:38:48;;;;;;;47.80;38.58;;;;;;;;;;5024085;28;20185;-69
2022/09/07 03:41:13;;;;;;;46.58;37.22;;;;;;;;;;5023013;28;20239;-69
2022/09/07 03:43:38;;;;;;;48.85;37.78;;;;;;;;;;5023309;28;20346;-69
2022/09/07 03:46:05;;;;;;;48.08;36.40;;;;;;;;;;5018241;28;20190;-69
2022/09/07 03:48:32;;;;;;;53.53;39.88;;;;;;;;;;5024471;28;20669;-69
2022/09/07 03:51:00;;;;;;;51.85;38.63;;;;;;;;;;5024162;28;20190;-69
2022/09/07 03:53:26;;;;;;;55.47;39.97;;;;;;;;;;5023493;28;20227;-70
2022/09/07 03:55:56;;;;;;;50.60;38.00;;;;;;;;;;5023529;28;20201;-69
2022/09/07 03:58:21;;;;;;;49.63;38.92;;;;;;;;;;5021629;28;20182;-69
2022/09/07 04:00:47;;;;;;;52.13;39.03;;;;;;;;;;5025315;28;20252;-69
2022/09/07 04:03:12;;;;;;;50.78;39.35;;;;;;;;;;5024142;28;20190;-69
2022/09/07 04:05:37;;;;;;;47.45;38.53;;;;;;;;;;5026693;28;20502;-69
2022/09/07 04:08:03;;;;;;;53.83;40.58;;;;;;;;;;5019751;28;20662;-70
2022/09/07 04:10:28;;;;;;;52.75;39.97;;;;;;;;;;5021570;28;20252;-69
2022/09/07 04:12:53;;;;;;;45.88;37.42;;;;;;;;;;5024675;28;20214;-69
2022/09/07 04:15:19;;;;;;;52.58;38.08;;;;;;;;;;5025355;28;20174;-69
2022/09/07 04:17:44;;;;;;;48.50;35.83;;;;;;;;;;5024846;28;20185;-69
2022/09/07 04:20:09;;;;;;;46.53;35.97;;;;;;;;;;5025490;28;20232;-70
2022/09/07 04:22:35;;;;;;;46.33;37.38;;;;;;;;;;5022749;28;20265;-70
2022/09/07 04:25:00;;;;;;;52.15;37.20;;;;;;;;;;5020813;28;20228;-68
2022/09/07 04:27:25;;;;;;;48.85;37.17;;;;;;;;;;5021774;28;20186;-69
2022/09/07 04:29:51;;;;;;;46.90;36.80;;;;;;;;;;5022910;28;20232;-69
2022/09/07 04:32:16;;;;;;;46.63;36.22;;;;;;;;;;5017968;28;20199;-69
2022/09/07 04:34:41;;;;;;;38.10;31.55;;;;;;;;;;5023454;28;20198;-69
2022/09/07 04:37:07;;;;;;;41.05;32.25;;;;;;;;;;5020444;28;20194;-69
2022/09/07 04:39:32;;;;;;;46.13;33.42;;;;;;;;;;5020506;28;20187;-69
2022/09/07 04:41:57;;;;;;;42.65;31.25;;;;;;;;;;5021401;28;20208;-69
2022/09/07 04:44:23;;;;;;;40.05;29.63;;;;;;;;;;5018733;28;20216;-70
2022/09/07 04:46:48;;;;;;;38.78;26.10;;;;;;;;;;5024082;28;20235;-69
2022/09/07 04:49:13;;;;;;;34.30;25.77;;;;;;;;;;5021633;28;20214;-70
2022/09/07 04:51:41;;;;;;;32.40;24.58;;;;;;;;;;5020674;28;20213;-69
2022/09/07 04:54:08;;;;;;;32.20;24.75;;;;;;;;;;5023654;28;20642;-70
2022/09/07 04:56:34;;;;;;;37.08;25.13;;;;;;;;;;5021508;28;20181;-70
2022/09/07 04:59:02;;;;;;;30.02;22.73;;;;;;;;;;5017372;28;20190;-69
2022/09/07 05:01:28;;;;;;;27.95;21.45;;;;;;;;;;5020528;28;20197;-69
2022/09/07 05:03:54;;;;;;;25.10;20.33;;;;;;;;;;5015849;28;20182;-69
2022/09/07 05:06:21;;;;;;;25.20;19.85;;;;;;;;;;5016539;28;20186;-69
2022/09/07 05:08:49;;;;;;;26.40;20.73;;;;;;;;;;5023231;28;20178;-69
2022/09/07 05:11:16;;;;;;;27.38;19.58;;;;;;;;;;5029080;28;20186;-69
2022/09/07 05:13:41;;;;;;;27.77;19.42;;;;;;;;;;5026646;28;20257;-69
2022/09/07 05:16:09;;;;;;;27.67;19.05;;;;;;;;;;5029255;28;20174;-69
2022/09/07 05:18:34;;;;;;;23.08;17.27;;;;;;;;;;5025868;28;20185;-69
2022/09/07 05:21:10;;;;;;;23.92;18.58;;;;;;;;;;5027983;28;20559;-69
2022/09/07 05:23:35;;;;;;;27.05;18.05;;;;;;;;;;5025700;28;20559;-70
2022/09/07 05:26:02;;;;;;;24.35;16.55;;;;;;;;;;5027654;28;20221;-69
2022/09/07 05:28:28;;;;;;;26.35;18.55;;;;;;;;;;5027439;28;20534;-69
2022/09/07 05:30:53;;;;;;;25.05;17.80;;;;;;;;;;5025827;28;20179;-69
2022/09/07 05:33:18;;;;;;;21.52;17.90;;;;;;;;;;5029851;28;20210;-69
2022/09/07 05:35:43;;;;;;;22.10;16.30;;;;;;;;;;5027999;28;20325;-68
2022/09/07 05:38:09;;;;;;;19.98;16.95;;;;;;;;;;5021830;28;20190;-70
2022/09/07 05:40:34;;;;;;;27.85;19.73;;;;;;;;;;5026075;28;20189;-69
2022/09/07 05:42:59;;;;;;;22.88;16.50;;;;;;;;;;5032765;28;20216;-69
2022/09/07 05:45:25;;;;;;;19.67;16.27;;;;;;;;;;5019316;28;20714;-70
2022/09/07 05:47:50;;;;;;;25.20;18.98;;;;;;;;;;5021128;28;20190;-69
2022/09/07 05:50:16;;;;;;;22.33;18.05;;;;;;;;;;5022046;28;20182;-69
2022/09/07 05:52:42;;;;;;;25.92;21.73;;;;;;;;;;5018411;28;20623;-69
2022/09/07 05:55:07;;;;;;;30.95;22.75;;;;;;;;;;5023050;28;20190;-69
2022/09/07 05:57:32;;;;;;;31.33;21.90;;;;;;;;;;5025144;28;20255;-68
2022/09/07 05:59:58;;;;;;;32.60;24.17;;;;;;;;;;5014948;28;20213;-69
2022/09/07 06:02:23;;;;;;;30.08;23.00;;;;;;;;;;5022047;28;20200;-69
2022/09/07 06:04:49;;;;;;;31.83;24.40;;;;;;;;;;5027178;28;20221;-69
2022/09/07 06:07:14;;;;;;;31.23;24.73;;;;;;;;;;5026937;28;20194;-69
2022/09/07 06:09:40;;;;;;;33.42;25.13;;;;;;;;;;5021293;28;20635;-69
2022/09/07 06:12:06;;;;;;;38.30;28.10;;;;;;;;;;5022313;28;20654;-69
2022/09/07 06:14:32;;;;;;;33.25;24.73;;;;;;;;;;5022198;28;20617;-69
2022/09/07 06:16:57;;;;;;;33.38;22.83;;;;;;;;;;5026349;28;20187;-69
2022/09/07 06:19:23;;;;;;;36.85;27.27;;;;;;;;;;5026725;28;20198;-69
2022/09/07 06:21:48;;;;;;;38.08;26.60;;;;;;;;;;5024280;28;20186;-69
2022/09/07 06:24:13;;;;;;;34.47;27.15;;;;;;;;;;5024196;28;20460;-69
2022/09/07 06:26:39;;;;;;;35.45;27.73;;;;;;;;;;5026709;28;20381;-69
2022/09/07 06:29:04;;;;;;;37.45;27.90;;;;;;;;;;5025651;28;20204;-69
2022/09/07 06:31:30;;;;;;;33.38;27.05;;;;;;;;;;5024027;28;20689;-69
2022/09/07 06:33:56;;;;;;;43.38;27.13;;;;;;;;;;5027400;28;20182;-69
2022/09/07 06:36:23;;;;;;;36.75;27.98;;;;;;;;;;5019951;28;20170;-69
2022/09/07 06:38:50;;;;;;;35.47;26.92;;;;;;;;;;5028079;28;20189;-69
2022/09/07 06:41:20;;;;;;;35.17;27.38;;;;;;;;;;5018776;28;20567;-69
2022/09/07 06:43:46;;;;;;;35.63;27.02;;;;;;;;;;5024888;28;20212;-69
2022/09/07 06:46:12;;;;;;;30.00;23.25;;;;;;;;;;5016261;28;20906;-69
2022/09/07 06:48:38;;;;;;;33.97;26.52;;;;;;;;;;5028156;28;20174;-69
2022/09/07 06:51:07;;;;;;;30.85;23.05;;;;;;;;;;5028807;28;20190;-69
2022/09/07 06:53:35;;;;;;;30.80;25.33;;;;;;;;;;5025380;28;20190;-68
2022/09/07 06:56:03;;;;;;;30.42;24.30;;;;;;;;;;5022319;28;20252;-69
2022/09/07 06:58:29;;;;;;;30.33;26.23;;;;;;;;;;5026573;28;20176;-70
2022/09/07 07:00:55;;;;;;;28.13;24.00;;;;;;;;;;5025582;28;20182;-67
2022/09/07 07:03:21;;;;;;;31.45;25.00;;;;;;;;;;5017292;28;20207;-68
2022/09/07 07:05:54;;;;;;;31.17;25.10;;;;;;;;;;5017055;28;20681;-68
2022/09/07 07:08:21;;;;;;;30.75;24.95;;;;;;;;;;5019629;28;20213;-68
2022/09/07 07:10:46;;;;;;;24.92;22.25;;;;;;;;;;5022126;28;20249;-68
2022/09/07 07:13:12;;;;;;;34.03;26.45;;;;;;;;;;5024970;28;20221;-68
2022/09/07 07:15:37;;;;;;;29.35;23.77;;;;;;;;;;5013215;28;20187;-68
2022/09/07 07:18:03;;;;;;;28.50;23.55;;;;;;;;;;5024123;28;20178;-68
2022/09/07 07:20:28;;;;;;;29.88;23.92;;;;;;;;;;5016352;28;20260;-68
2022/09/07 07:22:53;;;;;;;28.95;24.83;;;;;;;;;;5028364;28;20254;-68
2022/09/07 07:25:19;;;;;;;33.13;27.83;;;;;;;;;;5024383;28;20232;-68
2022/09/07 07:27:45;;;;;;;30.67;26.40;;;;;;;;;;5015571;28;20197;-67
2022/09/07 07:30:12;;;;;;;32.38;26.52;;;;;;;;;;5019513;28;20213;-68
2022/09/07 07:32:38;;;;;;;32.50;28.25;;;;;;;;;;5024259;28;20209;-67
2022/09/07 07:35:04;;;;;;;34.80;27.08;;;;;;;;;;5023259;28;20187;-68
2022/09/07 07:37:31;;;;;;;30.23;26.90;;;;;;;;;;5028109;28;20174;-68
2022/09/07 07:39:56;;;;;;;31.85;26.80;;;;;;;;;;5030699;28;20216;-68
2022/09/07 07:42:21;;;;;;;29.88;25.52;;;;;;;;;;5023992;28;20232;-68
2022/09/07 07:44:47;;;;;;;31.55;26.35;;;;;;;;;;5026422;28;20248;-68
2022/09/07 07:47:12;;;;;;;30.98;26.83;;;;;;;;;;5028242;28;20192;-68
2022/09/07 07:49:37;;;;;;;32.55;26.70;;;;;;;;;;5028247;28;20194;-68
2022/09/07 07:52:05;;;;;;;30.23;25.38;;;;;;;;;;5027435;28;20229;-68
2022/09/07 07:54:32;;;;;;;30.23;26.98;;;;;;;;;;5027205;28;20644;-69
2022/09/07 07:56:58;;;;;;;30.58;26.63;;;;;;;;;;5025164;28;20671;-68
2022/09/07 07:59:24;;;;;;;30.50;25.45;;;;;;;;;;5028513;28;20520;-68
2022/09/07 08:01:50;;;;;;;28.15;23.63;;;;;;;;;;5024188;28;20185;-68
2022/09/07 08:04:15;;;;;;;28.90;25.02;;;;;;;;;;5028353;28;20206;-68
2022/09/07 08:06:41;;;;;;;31.80;24.85;;;;;;;;;;5026746;28;20575;-68
2022/09/07 08:09:06;;;;;;;30.00;26.25;;;;;;;;;;5028309;28;20193;-68
2022/09/07 08:11:33;;;;;;;28.45;25.27;;;;;;;;;;5027123;28;20269;-68
2022/09/07 08:14:01;;;;;;;28.38;23.27;;;;;;;;;;5028195;28;20201;-68
2022/09/07 08:16:26;;;;;;;32.00;25.23;;;;;;;;;;5023869;28;20190;-68
2022/09/07 08:18:52;;;;;;;27.35;24.20;;;;;;;;;;5027860;28;20558;-68
2022/09/07 08:21:18;;;;;;;27.27;23.58;;;;;;;;;;5020473;28;20189;-68
2022/09/07 08:23:43;;;;;;;27.20;22.92;;;;;;;;;;5024908;28;20182;-68
2022/09/07 08:26:09;;;;;;;26.70;22.92;;;;;;;;;;5021610;28;20310;-68
2022/09/07 08:28:39;;;;;;;26.58;23.60;;;;;;;;;;5017281;28;20185;-66
2022/09/07 08:31:07;;;;;;;29.23;23.58;;;;;;;;;;5022439;28;20254;-67
2022/09/07 08:33:37;;;;;;;26.95;22.65;;;;;;;;;;5027993;28;20182;-67
2022/09/07 08:36:06;;;;;;;25.80;23.13;;;;;;;;;;5020714;28;20520;-68
2022/09/07 08:38:33;;;;;;;28.50;22.77;;;;;;;;;;5021897;28;20186;-67
2022/09/07 08:41:00;;;;;;;24.73;22.05;;;;;;;;;;5034934;28;20190;-67
2022/09/07 08:43:34;;;;;;;23.85;21.27;;;;;;;;;;5028540;28;20217;-68
2022/09/07 08:46:28;;;;;;;25.92;22.40;;;;;;;;;;5031028;28;20232;-67
2022/09/07 08:48:55;;;;;;;24.58;21.63;;;;;;;;;;5015976;28;20198;-68
2022/09/07 08:51:30;;;;;;;23.05;20.65;;;;;;;;;;5024893;28;20199;-67
2022/09/07 08:53:55;;;;;;;24.92;20.98;;;;;;;;;;5029200;28;20178;-67
2022/09/07 08:56:26;;;;;;;22.42;19.95;;;;;;;;;;5027958;28;20593;-67
2022/09/07 08:58:53;;;;;;;23.13;20.73;;;;;;;;;;5030294;28;20300;-67
2022/09/07 09:01:18;;;;;;;23.63;19.52;;;;;;;;;;5028657;28;20626;-67
2022/09/07 09:03:46;;;;;;;24.42;19.98;;;;;;;;;;5026351;28;20205;-67
2022/09/07 09:06:39;;;;;;;23.10;20.60;;;;;;;;;;5027681;28;20304;-67
2022/09/07 09:09:26;;;;;;;26.23;21.23;;;;;;;;;;5030185;28;20240;-67
2022/09/07 09:12:16;;;;;;;20.38;18.27;;;;;;;;;;5025279;28;20685;-67
2022/09/07 09:15:02;;;;;;;22.52;19.30;;;;;;;;;;5030528;28;20182;-68
2022/09/07 09:17:36;;;;;;;23.25;19.27;;;;;;;;;;5021015;28;20274;-67
2022/09/07 09:20:35;;;;;;;23.73;20.00;;;;;;;;;;5030295;28;20181;-67
2022/09/07 09:23:11;;;;;;;26.00;20.48;;;;;;;;;;5015217;28;20194;-67
2022/09/07 09:25:39;;;;;;;28.13;20.33;;;;;;;;;;5027270;28;20692;-67
2022/09/07 09:28:11;;;;;;;25.13;20.67;;;;;;;;;;5021476;28;20212;-67
2022/09/07 09:30:37;;;;;;;22.90;19.88;;;;;;;;;;5031033;28;20209;-67
2022/09/07 09:33:18;;;;;;;24.27;20.17;;;;;;;;;;5024987;28;20713;-67
2022/09/07 09:35:48;;;;;;;23.67;21.10;;;;;;;;;;5027258;28;20217;-67
2022/09/07 09:38:32;;;;;;;24.00;21.10;;;;;;;;;;5010638;28;20210;-67
2022/09/07 09:41:02;;;;;;;21.10;19.00;;;;;;;;;;5029171;28;20685;-67
2022/09/07 09:43:35;;;;;;;23.38;20.88;;;;;;;;;;5027745;28;20243;-67
2022/09/07 09:46:01;;;;;;;24.55;20.50;;;;;;;;;;5027564;28;20194;-68
2022/09/07 09:48:33;;;;;;;25.25;19.98;;;;;;;;;;5028732;28;20190;-67
2022/09/07 09:51:00;;;;;;;23.73;19.65;;;;;;;;;;5030817;28;20640;-67
2022/09/07 09:53:34;;;;;;;25.27;21.63;;;;;;;;;;5024778;28;20213;-67
2022/09/07 09:56:01;;;;;;;25.02;20.90;;;;;;;;;;5026845;28;20189;-67
2022/09/07 09:58:32;;;;;;;21.98;19.52;;;;;;;;;;5023895;28;20197;-67
2022/09/07 10:01:04;;;;;;;22.38;19.58;;;;;;;;;;5028199;28;20182;-66
2022/09/07 10:03:31;;;;;;;19.73;17.63;;;;;;;;;;5028663;28;20185;-67
2022/09/07 10:05:58;;;;;;;20.52;18.45;;;;;;;;;;5029112;28;20279;-67
2022/09/07 10:08:30;;;;;;;21.67;18.23;;;;;;;;;;5025707;28;20185;-68
2022/09/07 10:10:58;;;;;;;20.40;17.10;;;;;;;;;;5029743;28;20205;-66
2022/09/07 10:13:30;;;;;;;20.15;17.13;;;;;;;;;;5019731;28;20182;-67
2022/09/07 10:15:58;;;;;;;19.63;16.65;;;;;;;;;;5025092;28;20247;-67
2022/09/07 10:18:58;;;;;;;19.92;17.83;;;;;;;;;;5026054;28;20186;-67
2022/09/07 10:21:26;;;;;;;18.27;16.38;;;;;;;;;;5024842;28;20221;-67
2022/09/07 10:23:56;;;;;;;20.50;15.98;;;;;;;;;;5024843;28;20179;-66
2022/09/07 10:26:35;;;;;;;16.85;15.00;;;;;;;;;;5027275;28;20253;-66
2022/09/07 10:29:28;;;;;;;16.05;14.35;;;;;;;;;;5019884;28;20563;-67
2022/09/07 10:32:18;;;;;;;14.40;12.68;;;;;;;;;;5021400;28;20215;-67
2022/09/07 10:35:08;;;;;;;16.27;13.50;;;;;;;;;;5021337;28;20690;-67
2022/09/07 10:37:55;;;;;;;18.83;14.75;;;;;;;;;;5014048;28;20181;-67
2022/09/07 10:40:34;;;;;;;15.88;14.13;;;;;;;;;;5035487;28;20548;-67
2022/09/07 10:43:31;;;;;;;12.95;11.60;;;;;;;;;;5019957;28;20182;-67
2022/09/07 10:46:30;;;;;;;14.85;12.65;;;;;;;;;;5027933;28;20217;-67
2022/09/07 10:49:21;;;;;;;15.30;13.70;;;;;;;;;;5019253;28;20182;-67
2022/09/07 10:51:58;;;;;;;14.70;13.13;;;;;;;;;;5012380;28;20183;-68
2022/09/07 10:54:35;;;;;;;14.35;12.57;;;;;;;;;;5020210;28;20615;-67
2022/09/07 10:57:18;;;;;;;14.63;13.00;;;;;;;;;;5011946;28;20225;-70
2022/09/07 11:00:03;;;;;;;16.55;12.75;;;;;;;;;;5024245;28;20718;-67
2022/09/07 11:02:54;;;;;;;15.73;13.75;;;;;;;;;;5027461;28;20584;-67
2022/09/07 11:05:52;;;;;;;16.70;13.15;;;;;;;;;;5028093;28;20201;-68
2022/09/07 11:08:33;;;;;;;14.32;12.85;;;;;;;;;;5015482;28;20190;-68
2022/09/07 11:11:19;;;;;;;16.10;12.30;;;;;;;;;;5029336;28;20170;-68
2022/09/07 11:13:49;;;;;;;15.30;12.75;;;;;;;;;;5028337;28;20214;-68
2022/09/07 11:16:20;;;;;;;13.85;12.23;;;;;;;;;;5027800;28;20524;-68
2022/09/07 11:19:03;;;;;;;14.15;12.60;;;;;;;;;;5026957;28;20182;-68
2022/09/07 11:21:44;;;;;;;13.63;10.77;;;;;;;;;;5028636;28;20177;-68
2022/09/07 11:24:33;;;;;;;14.30;12.80;;;;;;;;;;5021741;28;20264;-68
2022/09/07 11:27:08;;;;;;;14.02;12.30;;;;;;;;;;5026822;28;20237;-67
2022/09/07 11:29:47;;;;;;;12.77;11.32;;;;;;;;;;5027943;28;20315;-68
2022/09/07 11:32:24;;;;;;;14.18;11.45;;;;;;;;;;5024560;28;20250;-68
2022/09/07 11:34:51;;;;;;;14.68;12.48;;;;;;;;;;5023711;28;20169;-68
2022/09/07 11:37:34;;;;;;;14.27;11.40;;;;;;;;;;5019822;28;20187;-68
2022/09/07 11:40:16;;;;;;;11.20;10.10;;;;;;;;;;5027157;28;20641;-68
2022/09/07 11:43:04;;;;;;;14.05;9.55;;;;;;;;;;5021392;28;20192;-68
2022/09/07 11:45:45;;;;;;;9.40;8.10;;;;;;;;;;5018353;28;20214;-68
2022/09/07 11:48:20;;;;;;;10.50;8.52;;;;;;;;;;5018720;28;20189;-68
2022/09/07 11:50:59;;;;;;;8.68;7.43;;;;;;;;;;5027886;28;20189;-67
2022/09/07 11:53:33;;;;;;;10.35;9.35;;;;;;;;;;5027075;28;20182;-68
2022/09/07 11:56:31;;;;;;;13.77;9.90;;;;;;;;;;5027910;28;20182;-68
2022/09/07 11:59:11;;;;;;;10.40;9.20;;;;;;;;;;5015738;28;20528;-68
2022/09/07 12:01:59;;;;;;;10.02;9.07;;;;;;;;;;5027073;28;20590;-67
2022/09/07 12:04:58;;;;;;;11.52;9.20;;;;;;;;;;5027893;28;20267;-68
2022/09/07 12:08:01;;;;;;;9.65;8.75;;;;;;;;;;5023420;28;20187;-67
2022/09/07 12:10:50;;;;;;;10.93;7.88;;;;;;;;;;5022344;28;20609;-68
2022/09/07 12:13:30;;;;;;;10.15;8.43;;;;;;;;;;5026748;28;20277;-69
2022/09/07 12:15:55;;;;;;;10.02;8.27;;;;;;;;;;5027662;28;20178;-67
2022/09/07 12:18:50;;;;;;;9.07;7.68;;;;;;;;;;5028210;28;20481;-67
2022/09/07 12:21:45;;;;;;;8.43;7.25;;;;;;;;;;5028720;28;20601;-66
2022/09/07 12:24:48;;;;;;;8.98;8.07;;;;;;;;;;5030788;28;20218;-67
2022/09/07 12:27:20;;;;;;;10.68;7.22;;;;;;;;;;5017541;28;20595;-67
2022/09/07 12:30:09;;;;;;;10.13;8.48;;;;;;;;;;5027021;28;20196;-68
2022/09/07 12:33:03;;;;;;;9.75;8.25;;;;;;;;;;5014858;28;20215;-67
2022/09/07 12:35:31;;;;;;;9.05;8.07;;;;;;;;;;5030580;28;20618;-68
2022/09/07 12:37:56;;;;;;;8.70;7.18;;;;;;;;;;5027751;28;20663;-66
2022/09/07 12:43:11;;;;;;;10.35;9.20;;;;;;;;;;5011841;28;20252;-67
2022/09/07 12:45:36;;;;;;;11.63;8.52;;;;;;;;;;5018650;28;20692;-66
2022/09/07 12:48:13;;;;;;;10.10;8.63;;;;;;;;;;5027396;28;20470;-67
2022/09/07 12:50:42;;;;;;;9.25;8.35;;;;;;;;;;5021939;28;20178;-66
2022/09/07 12:53:23;;;;;;;10.13;7.80;;;;;;;;;;5029771;28;20273;-67
2022/09/07 12:56:09;;;;;;;9.30;8.38;;;;;;;;;;5028605;28;20483;-67
2022/09/07 12:58:48;;;;;;;7.90;7.07;;;;;;;;;;5018547;28;20201;-66
2022/09/07 13:01:27;;;;;;;8.52;7.60;;;;;;;;;;5030329;28;20193;-67
2022/09/07 13:04:11;;;;;;;8.82;7.25;;;;;;;;;;5028804;28;20170;-66
2022/09/07 13:07:01;;;;;;;8.10;6.05;;;;;;;;;;5019337;28;20202;-68
2022/09/07 13:09:26;;;;;;;10.27;6.88;;;;;;;;;;5021363;28;20241;-67
2022/09/07 13:11:52;;;;;;;7.97;7.18;;;;;;;;;;5029738;28;20490;-67
2022/09/07 13:14:20;;;;;;;8.32;7.55;;;;;;;;;;5024876;28;20185;-67
2022/09/07 13:16:47;;;;;;;8.68;6.97;;;;;;;;;;5024033;28;20525;-67
2022/09/07 13:19:33;;;;;;;6.88;6.18;;;;;;;;;;5028061;28;20186;-67
2022/09/07 13:21:58;;;;;;;9.85;8.10;;;;;;;;;;5025551;28;20205;-67
2022/09/07 13:24:36;;;;;;;11.50;8.57;;;;;;;;;;5029213;28;20241;-68
2022/09/07 13:27:04;;;;;;;10.40;7.07;;;;;;;;;;5029406;28;21268;-67
2022/09/07 13:29:37;;;;;;;12.85;7.68;;;;;;;;;;5026280;28;20269;-68
2022/09/07 13:32:08;;;;;;;9.63;8.07;;;;;;;;;;5027143;28;20239;-67
2022/09/07 13:34:33;;;;;;;10.82;8.35;;;;;;;;;;5027885;28;20178;-68
2022/09/07 13:37:13;;;;;;;10.00;8.30;;;;;;;;;;5026077;28;20247;-67
2022/09/07 13:39:45;;;;;;;9.65;5.65;;;;;;;;;;5029426;28;20177;-68
2022/09/07 13:42:37;;;;;;;7.45;5.45;;;;;;;;;;5028427;28;20261;-68
2022/09/07 13:45:06;;;;;;;8.25;5.85;;;;;;;;;;5026600;28;20222;-68
2022/09/07 13:47:45;;;;;;;6.93;5.45;;;;;;;;;;5027598;28;20228;-68
2022/09/07 13:50:26;;;;;;;6.90;5.57;;;;;;;;;;5026041;28;20641;-69
2022/09/07 13:53:14;;;;;;;6.85;5.63;;;;;;;;;;5027622;28;20182;-68
2022/09/07 13:55:51;;;;;;;7.78;6.57;;;;;;;;;;5025309;28;20191;-68
2022/09/07 13:58:21;;;;;;;9.00;6.47;;;;;;;;;;5019040;28;20200;-69
2022/09/07 14:00:59;;;;;;;7.20;6.25;;;;;;;;;;5030007;28;20273;-68
2022/09/07 14:03:28;;;;;;;7.15;5.85;;;;;;;;;;5021205;28;20736;-68
2022/09/07 14:06:33;;;;;;;7.53;6.63;;;;;;;;;;5027345;28;20198;-68
2022/09/07 14:08:59;;;;;;;8.30;6.13;;;;;;;;;;5005245;28;20810;-68
2022/09/07 14:11:45;;;;;;;9.68;7.00;;;;;;;;;;5006970;28;20190;-69
2022/09/07 14:14:15;;;;;;;7.25;6.07;;;;;;;;;;5017262;28;20251;-69
2022/09/07 14:16:44;;;;;;;6.50;5.07;;;;;;;;;;5028950;28;20213;-69
2022/09/07 14:19:35;;;;;;;5.25;4.70;;;;;;;;;;5026600;28;20190;-68
2022/09/07 14:22:22;;;;;;;6.13;4.75;;;;;;;;;;5027363;28;20696;-69
2022/09/07 14:24:53;;;;;;;5.57;4.75;;;;;;;;;;5027879;28;20201;-69
2022/09/07 14:27:23;;;;;;;6.43;4.72;;;;;;;;;;5023843;28;20221;-68
2022/09/07 14:29:49;;;;;;;7.10;4.55;;;;;;;;;;5028294;28;20662;-68
2022/09/07 14:32:23;;;;;;;6.05;4.65;;;;;;;;;;5028623;28;20210;-69
2022/09/07 14:34:49;;;;;;;7.43;4.18;;;;;;;;;;5015686;28;20182;-69
2022/09/07 14:37:16;;;;;;;6.72;4.97;;;;;;;;;;5029550;28;20647;-69
2022/09/07 14:39:46;;;;;;;5.43;4.60;;;;;;;;;;5017597;28;20242;-69
2022/09/07 14:42:16;;;;;;;5.78;4.75;;;;;;;;;;4331076;28;10000713;-69
2022/09/07 14:44:41;;;;;;;5.90;5.30;;;;;;;;;;5019841;28;20195;-69
2022/09/07 14:47:37;;;;;;;6.22;4.80;;;;;;;;;;5024054;28;20599;-68
2022/09/07 14:50:04;;;;;;;5.07;4.57;;;;;;;;;;5024502;28;20181;-69
2022/09/07 14:52:40;;;;;;;6.50;4.50;;;;;;;;;;5021018;28;20183;-69